Time;durP1;ratioP1;P1;durP2;ratioP2;P2;SDS_P1;SDS_P2;PMS_P1;PMS_P2;Temp;Humidity;BMP_temperature;BMP_pressure;BME280_temperature;BME280_humidity;BME280_pressure;Samples;Min_cycle;Max_cycle;Signal;HPM_P1;HPM_P2
2023/07/22 00:01:26;;;;;;;13.73;6.28;;;;;;;19.79;100.00;94142.63;6166620;23;20083;-93
2023/07/22 00:03:51;;;;;;;14.13;6.05;;;;;;;20.11;100.00;94132.28;6165682;23;20001;-92
2023/07/22 00:06:17;;;;;;;16.77;6.63;;;;;;;20.31;100.00;94137.78;6166435;23;20008;-92
2023/07/22 00:08:42;;;;;;;15.73;6.40;;;;;;;20.05;100.00;94139.69;6166488;23;20004;-93
2023/07/22 00:11:08;;;;;;;17.15;6.28;;;;;;;19.92;100.00;94125.59;6166560;23;20004;-93
2023/07/22 00:13:34;;;;;;;17.75;6.35;;;;;;;19.95;100.00;94134.06;6166063;23;20433;-92
2023/07/22 00:16:04;;;;;;;10.02;5.35;;;;;;;19.90;100.00;94133.13;6190251;23;20418;-91
2023/07/22 00:18:30;;;;;;;21.25;6.78;;;;;;;19.78;100.00;94125.91;6190904;23;20395;-92
2023/07/22 00:20:56;;;;;;;11.73;5.35;;;;;;;19.74;100.00;94124.25;6190765;23;19996;-92
2023/07/22 00:23:22;;;;;;;16.85;6.50;;;;;;;19.67;100.00;94124.03;6165000;23;20000;-91
2023/07/22 00:25:48;;;;;;;14.07;5.70;;;;;;;19.69;100.00;94116.50;6190251;23;20083;-92
2023/07/22 00:28:14;;;;;;;23.90;6.63;;;;;;;19.44;100.00;94103.19;6166788;23;20008;-93
2023/07/22 00:30:39;;;;;;;13.45;5.80;;;;;;;19.39;100.00;94104.16;6166358;23;20011;-92
2023/07/22 00:33:05;;;;;;;15.50;6.45;;;;;;;19.29;100.00;94097.41;6164705;23;20008;-91
2023/07/22 00:35:31;;;;;;;20.25;6.47;;;;;;;19.44;100.00;94096.00;6165436;23;20719;-90
2023/07/22 00:37:57;;;;;;;15.20;6.18;;;;;;;19.57;100.00;94080.84;6165798;23;20380;-93
2023/07/22 00:40:23;;;;;;;15.68;5.88;;;;;;;19.62;100.00;94079.84;6166213;23;20080;-92
2023/07/22 00:42:48;;;;;;;13.55;6.30;;;;;;;19.77;100.00;94081.06;6189824;23;20027;-92
2023/07/22 00:45:14;;;;;;;13.60;6.05;;;;;;;19.75;100.00;94086.72;6165668;23;20004;-92
2023/07/22 00:47:39;;;;;;;18.80;6.57;;;;;;;19.42;100.00;94095.53;6166036;23;20418;-91
2023/07/22 00:50:07;;;;;;;16.08;6.65;;;;;;;18.99;100.00;94102.88;6190134;23;20001;-91
2023/07/22 00:52:36;;;;;;;20.15;6.43;;;;;;;19.10;100.00;94089.94;6165779;23;20083;-93
2023/07/22 00:55:02;;;;;;;21.75;6.60;;;;;;;19.06;100.00;94092.47;6165707;23;20024;-92
2023/07/22 00:57:28;;;;;;;16.88;6.80;;;;;;;19.31;100.00;94092.53;6165891;23;20079;-94
2023/07/22 00:59:54;;;;;;;16.73;6.35;;;;;;;18.88;100.00;94086.56;6166803;23;20008;-93
2023/07/22 01:02:20;;;;;;;16.38;6.78;;;;;;;19.10;100.00;94094.50;6166035;23;19997;-92
2023/07/22 01:04:46;;;;;;;16.40;6.07;;;;;;;19.03;100.00;94098.44;6164890;23;19997;-90
2023/07/22 01:07:12;;;;;;;16.60;5.95;;;;;;;18.98;100.00;94101.28;6165927;23;20000;-92
2023/07/22 01:09:39;;;;;;;18.33;6.70;;;;;;;18.72;100.00;94083.72;6166074;23;20066;-93
2023/07/22 01:12:08;;;;;;;12.50;6.25;;;;;;;18.91;100.00;94091.19;6166082;23;20028;-91
2023/07/22 01:14:34;;;;;;;12.38;6.00;;;;;;;18.81;100.00;94096.91;6165754;23;20381;-92
2023/07/22 01:17:04;;;;;;;13.88;5.38;;;;;;;18.97;100.00;94091.78;6165139;23;20407;-92
2023/07/22 01:19:30;;;;;;;17.35;6.10;;;;;;;18.52;100.00;94095.91;6165725;23;20079;-92
2023/07/22 01:22:28;;;;;;;13.57;6.88;;;;;;;18.51;100.00;94105.75;6166584;23;20005;-93
2023/07/22 01:24:54;;;;;;;16.60;7.22;;;;;;;18.50;100.00;94106.81;6190656;23;20008;-94
2023/07/22 01:27:19;;;;;;;14.35;6.10;;;;;;;18.74;100.00;94105.41;6166190;23;20083;-93
2023/07/22 01:29:45;;;;;;;19.63;6.07;;;;;;;18.91;100.00;94101.03;6165709;23;20123;-91
2023/07/22 01:32:10;;;;;;;14.10;6.78;;;;;;;18.91;100.00;94109.00;6165705;23;20012;-93
2023/07/22 01:34:36;;;;;;;13.90;6.72;;;;;;;18.29;100.00;94108.69;6165810;23;20000;-94
2023/07/22 01:37:01;;;;;;;15.32;7.25;;;;;;;18.12;100.00;94118.31;6166499;23;20001;-93
2023/07/22 01:39:27;;;;;;;14.52;6.43;;;;;;;18.70;100.00;94112.47;6166119;23;20390;-92
2023/07/22 01:41:53;;;;;;;14.93;5.93;;;;;;;18.67;100.00;94113.13;6166185;23;20488;-93
2023/07/22 01:44:18;;;;;;;17.58;7.45;;;;;;;18.49;100.00;94104.50;6190306;23;20008;-94
2023/07/22 01:46:43;;;;;;;13.35;5.85;;;;;;;18.63;100.00;94105.03;6166386;23;20008;-93
2023/07/22 01:49:12;;;;;;;19.60;6.75;;;;;;;18.78;100.00;94100.22;6166148;23;20468;-92
2023/07/22 01:51:40;;;;;;;21.48;7.88;;;;;;;18.62;100.00;94095.50;6166226;23;20303;-93
2023/07/22 01:54:08;;;;;;;20.08;7.68;;;;;;;18.35;100.00;94100.22;6166469;23;20433;-93
2023/07/22 01:56:34;;;;;;;25.52;7.47;;;;;;;18.64;100.00;94097.81;6166531;23;20429;-93
2023/07/22 01:58:59;;;;;;;18.00;6.97;;;;;;;18.74;100.00;94109.94;6191188;23;20001;-92
2023/07/22 02:01:25;;;;;;;19.13;6.70;;;;;;;18.88;100.00;94114.97;6166098;23;19996;-93
2023/07/22 02:03:51;;;;;;;17.98;6.90;;;;;;;18.96;100.00;94131.91;6166249;23;20028;-93
2023/07/22 02:06:17;;;;;;;17.88;7.53;;;;;;;18.97;100.00;94134.25;6166281;23;20001;-92
2023/07/22 02:08:42;;;;;;;14.20;6.72;;;;;;;19.01;100.00;94137.81;6165957;23;20012;-92
2023/07/22 02:11:08;;;;;;;17.48;7.15;;;;;;;18.67;100.00;94149.47;6165789;23;20000;-94
2023/07/22 02:13:35;;;;;;;17.70;6.72;;;;;;;18.16;100.00;94152.94;6166172;23;20012;-93
2023/07/22 02:16:01;;;;;;;17.40;6.78;;;;;;;17.87;100.00;94157.09;6166390;23;20032;-93
2023/07/22 02:18:27;;;;;;;16.73;6.68;;;;;;;18.32;100.00;94166.41;6166119;23;20076;-93
2023/07/22 02:20:53;;;;;;;17.45;7.18;;;;;;;18.46;100.00;94169.59;6166238;23;20004;-93
2023/07/22 02:23:19;;;;;;;21.20;7.13;;;;;;;18.38;100.00;94167.78;6164516;23;20000;-91
2023/07/22 02:25:51;;;;;;;19.15;7.68;;;;;;;18.00;100.00;94165.91;6165887;23;20004;-94
2023/07/22 02:28:21;;;;;;;22.52;7.28;;;;;;;18.01;100.00;94167.47;6165431;23;19993;-92
2023/07/22 02:30:50;;;;;;;18.55;8.43;;;;;;;17.75;100.00;94165.69;6167124;23;20023;-93
2023/07/22 02:33:16;;;;;;;23.23;8.10;;;;;;;17.99;100.00;94178.38;6164854;23;20115;-91
2023/07/22 02:35:42;;;;;;;14.77;6.93;;;;;;;18.17;100.00;94176.44;6190003;23;20001;-92
2023/07/22 02:38:08;;;;;;;17.40;7.43;;;;;;;17.84;100.00;94179.69;6166082;23;19996;-93
2023/07/22 02:40:37;;;;;;;18.40;6.72;;;;;;;17.99;100.00;94174.97;6165187;23;20009;-92
2023/07/22 02:43:03;;;;;;;19.55;8.13;;;;;;;17.69;100.00;94169.63;6166352;23;19997;-92
2023/07/22 02:45:29;;;;;;;20.02;8.57;;;;;;;17.49;100.00;94185.88;6167816;23;20302;-93
2023/07/22 02:47:54;;;;;;;13.95;7.10;;;;;;;17.63;100.00;94184.91;6167638;23;20001;-92
2023/07/22 02:50:20;;;;;;;14.50;7.35;;;;;;;17.84;100.00;94184.22;6166792;23;20444;-92
2023/07/22 02:52:45;;;;;;;21.45;7.82;;;;;;;17.41;100.00;94197.25;6168091;23;20398;-94
2023/07/22 02:55:13;;;;;;;22.80;7.85;;;;;;;17.45;100.00;94205.34;6168309;23;20039;-93
2023/07/22 02:57:40;;;;;;;21.83;8.07;;;;;;;17.72;100.00;94208.72;6166981;23;20008;-90
2023/07/22 03:00:11;;;;;;;20.85;8.82;;;;;;;17.65;100.00;94210.00;6166451;23;20402;-93
2023/07/22 03:02:37;;;;;;;20.27;8.55;;;;;;;17.74;100.00;94209.97;6167682;23;20402;-92
2023/07/22 03:05:10;;;;;;;16.23;7.68;;;;;;;17.82;100.00;94213.69;6166861;23;20078;-94
2023/07/22 03:07:36;;;;;;;22.52;9.65;;;;;;;17.22;100.00;94216.16;6168647;23;19996;-93
2023/07/22 03:10:02;;;;;;;26.45;10.95;;;;;;;17.43;100.00;94212.84;6167487;23;20007;-93
2023/07/22 03:12:28;;;;;;;18.92;8.90;;;;;;;17.16;100.00;94209.44;6167957;23;20007;-93
2023/07/22 03:14:54;;;;;;;23.75;8.63;;;;;;;17.66;100.00;94200.97;6167297;23;20028;-92
2023/07/22 03:17:19;;;;;;;14.65;8.27;;;;;;;17.81;100.00;94206.84;6167264;23;20004;-92
2023/07/22 03:19:45;;;;;;;28.88;9.75;;;;;;;17.69;100.00;94206.72;6166628;23;20001;-93
2023/07/22 03:22:15;;;;;;;23.58;8.45;;;;;;;17.66;100.00;94203.59;6166684;23;20099;-92
2023/07/22 03:24:41;;;;;;;22.40;7.53;;;;;;;17.62;100.00;94205.31;6165688;23;20005;-89
2023/07/22 03:27:09;;;;;;;14.10;7.18;;;;;;;17.88;100.00;94203.69;6166412;23;20597;-91
2023/07/22 03:29:34;;;;;;;13.77;7.25;;;;;;;17.45;100.00;94208.00;6165824;23;20378;-93
2023/07/22 03:32:00;;;;;;;14.60;7.75;;;;;;;17.72;100.00;94206.88;6166814;23;20005;-92
2023/07/22 03:34:27;;;;;;;22.40;8.05;;;;;;;17.50;100.00;94210.47;6167283;23;20009;-93
2023/07/22 03:36:52;;;;;;;20.60;8.02;;;;;;;17.61;100.00;94222.31;6166253;23;20366;-90
2023/07/22 03:39:18;;;;;;;20.25;7.15;;;;;;;17.82;100.00;94224.28;6166119;23;20004;-90
2023/07/22 03:41:43;;;;;;;17.45;7.60;;;;;;;17.43;100.00;94216.28;6167253;23;20001;-93
2023/07/22 03:44:09;;;;;;;17.88;10.00;;;;;;;17.72;100.00;94217.47;6167627;23;20011;-92
2023/07/22 03:46:34;;;;;;;21.73;10.77;;;;;;;17.88;100.00;94217.72;6166486;23;20028;-90
2023/07/22 03:49:00;;;;;;;15.52;7.97;;;;;;;17.94;100.00;94213.81;6190307;23;20001;-90
2023/07/22 03:51:25;;;;;;;19.95;8.07;;;;;;;18.13;100.00;94217.16;6216753;23;20000;-91
2023/07/22 03:53:51;;;;;;;17.67;9.48;;;;;;;18.12;100.00;94223.56;6165751;23;20009;-91
2023/07/22 03:56:16;;;;;;;21.15;9.23;;;;;;;17.50;100.00;94226.38;6190296;23;19996;-91
2023/07/22 03:58:42;;;;;;;24.35;9.93;;;;;;;17.43;100.00;94215.50;6190331;23;20071;-92
2023/07/22 04:01:10;;;;;;;22.13;8.57;;;;;;;17.44;100.00;94211.75;6166008;23;20000;-92
2023/07/22 04:03:36;;;;;;;23.15;8.30;;;;;;;17.79;100.00;94219.63;6166592;23;20000;-92
2023/07/22 04:06:02;;;;;;;24.65;8.50;;;;;;;17.64;100.00;94223.56;6165878;23;20001;-92
2023/07/22 04:08:27;;;;;;;21.33;7.65;;;;;;;17.56;100.00;94225.13;6166328;23;20043;-92
2023/07/22 04:10:54;;;;;;;17.27;6.88;;;;;;;17.67;100.00;94234.31;6166146;23;20103;-91
2023/07/22 04:13:19;;;;;;;16.52;7.57;;;;;;;17.95;100.00;94238.44;6189560;23;20078;-90
2023/07/22 04:15:45;;;;;;;16.55;8.68;;;;;;;17.88;100.00;94244.22;6190175;23;20087;-91
2023/07/22 04:18:10;;;;;;;21.67;8.93;;;;;;;18.13;100.00;94243.69;6165257;23;20012;-92
2023/07/22 04:20:36;;;;;;;21.23;8.50;;;;;;;18.31;100.00;94247.84;6190797;23;20410;-93
2023/07/22 04:23:01;;;;;;;27.42;10.15;;;;;;;18.25;100.00;94241.13;6166323;23;20039;-92
2023/07/22 04:25:27;;;;;;;19.33;10.15;;;;;;;18.15;100.00;94252.88;6166919;23;20000;-92
2023/07/22 04:27:52;;;;;;;19.70;10.38;;;;;;;17.73;100.00;94245.50;6167206;23;20000;-92
2023/07/22 04:30:20;;;;;;;19.13;9.65;;;;;;;17.66;100.00;94242.56;6166771;23;20007;-92
2023/07/22 04:32:49;;;;;;;16.25;7.72;;;;;;;18.02;100.00;94240.59;6165887;23;20088;-91
2023/07/22 04:35:18;;;;;;;14.07;7.30;;;;;;;18.22;100.00;94242.56;6165551;23;19996;-90
2023/07/22 04:37:44;;;;;;;18.15;6.80;;;;;;;18.45;100.00;94244.94;6165607;23;20330;-92
2023/07/22 04:40:18;;;;;;;13.98;6.82;;;;;;;18.61;100.00;94241.75;6166178;23;20011;-92
2023/07/22 04:42:44;;;;;;;14.57;6.40;;;;;;;18.74;100.00;94253.25;6166222;23;20403;-91
2023/07/22 04:45:10;;;;;;;21.83;7.35;;;;;;;18.39;100.00;94259.50;6165846;23;19996;-92
2023/07/22 04:47:38;;;;;;;14.68;6.72;;;;;;;18.51;100.00;94254.28;6165492;23;20000;-91
2023/07/22 04:50:08;;;;;;;10.40;5.90;;;;;;;18.86;100.00;94255.19;6165753;23;20008;-91
2023/07/22 04:52:34;;;;;;;20.73;6.75;;;;;;;18.27;100.00;94256.75;6190791;23;20013;-92
2023/07/22 04:54:59;;;;;;;15.45;6.55;;;;;;;18.64;100.00;94262.31;6165507;23;20015;-92
2023/07/22 04:57:25;;;;;;;14.20;6.50;;;;;;;18.95;100.00;94263.88;6165312;23;20004;-91
2023/07/22 04:59:50;;;;;;;17.35;6.55;;;;;;;19.07;100.00;94265.84;6165979;23;20000;-91
2023/07/22 05:02:16;;;;;;;15.18;6.25;;;;;;;19.22;100.00;94275.09;6165727;23;19996;-91
2023/07/22 05:04:41;;;;;;;13.77;5.50;;;;;;;19.32;100.00;94279.25;6165182;23;20040;-91
2023/07/22 05:07:07;;;;;;;9.35;5.82;;;;;;;19.33;100.00;94278.91;6165514;23;20004;-91
2023/07/22 05:09:33;;;;;;;12.80;6.40;;;;;;;19.40;100.00;94286.34;6190066;23;20004;-91
2023/07/22 05:12:00;;;;;;;16.75;5.80;;;;;;;19.46;100.00;94284.28;6165566;23;20000;-91
2023/07/22 05:14:26;;;;;;;16.02;7.22;;;;;;;19.55;100.00;94279.69;6164865;23;20050;-90
2023/07/22 05:16:51;;;;;;;14.45;6.25;;;;;;;19.54;100.00;94283.44;6165407;23;20000;-91
2023/07/22 05:19:18;;;;;;;16.30;7.10;;;;;;;19.00;100.00;94279.63;6165372;23;20046;-91
2023/07/22 05:21:44;;;;;;;14.05;6.28;;;;;;;19.52;100.00;94290.97;6190209;23;20413;-91
2023/07/22 05:24:09;;;;;;;16.20;6.00;;;;;;;19.57;100.00;94289.97;6164677;23;20009;-91
2023/07/22 05:26:35;;;;;;;14.48;6.65;;;;;;;19.74;100.00;94286.38;6189584;23;19997;-91
2023/07/22 05:29:00;;;;;;;17.17;5.95;;;;;;;19.81;100.00;94291.97;6189826;23;20008;-91
2023/07/22 05:31:26;;;;;;;17.23;6.70;;;;;;;19.89;100.00;94301.72;6189654;23;19997;-92
2023/07/22 05:33:51;;;;;;;16.15;6.68;;;;;;;20.05;100.00;94299.25;6165106;23;20012;-92
2023/07/22 05:36:17;;;;;;;13.55;6.25;;;;;;;19.94;100.00;94294.66;6165477;23;20019;-92
2023/07/22 05:38:43;;;;;;;11.82;5.63;;;;;;;19.99;100.00;94294.47;6165002;23;20307;-91
2023/07/22 05:41:41;;;;;;;12.70;5.85;;;;;;;20.54;100.00;94299.63;6165168;23;20000;-91
2023/07/22 05:44:07;;;;;;;14.93;6.18;;;;;;;20.80;100.00;94301.16;6189842;23;20075;-91
2023/07/22 05:46:32;;;;;;;13.85;5.93;;;;;;;20.26;100.00;94300.28;6165333;23;20001;-91
2023/07/22 05:48:58;;;;;;;17.33;5.88;;;;;;;20.75;100.00;94304.84;6190315;23;20007;-92
2023/07/22 05:51:23;;;;;;;14.18;6.05;;;;;;;20.99;100.00;94309.41;6165645;23;20419;-90
2023/07/22 05:53:49;;;;;;;15.25;6.10;;;;;;;20.71;100.00;94307.41;6165217;23;20009;-92
2023/07/22 05:56:14;;;;;;;18.67;6.95;;;;;;;21.28;100.00;94314.78;6165060;23;20066;-91
2023/07/22 05:58:40;;;;;;;15.15;6.20;;;;;;;21.45;100.00;94319.06;6165194;23;20434;-91
2023/07/22 06:01:05;;;;;;;14.30;6.30;;;;;;;21.58;100.00;94314.47;6165298;23;19997;-91
2023/07/22 06:03:31;;;;;;;16.75;6.40;;;;;;;21.74;100.00;94317.22;6189066;23;20008;-91
2023/07/22 06:05:56;;;;;;;19.02;6.88;;;;;;;21.87;100.00;94332.06;6165166;23;19997;-91
2023/07/22 06:08:22;;;;;;;13.95;6.80;;;;;;;21.65;100.00;94327.22;6189254;23;20009;-92
2023/07/22 06:10:47;;;;;;;16.10;7.47;;;;;;;22.05;100.00;94331.75;6164947;23;20283;-90
2023/07/22 06:13:13;;;;;;;13.85;6.82;;;;;;;22.21;100.00;94333.66;6163810;23;20012;-91
2023/07/22 06:15:38;;;;;;;17.10;6.25;;;;;;;22.35;100.00;94339.34;6164627;23;20003;-90
2023/07/22 06:18:08;;;;;;;15.15;6.95;;;;;;;22.16;100.00;94338.13;6164732;23;20007;-91
2023/07/22 06:20:34;;;;;;;12.55;6.40;;;;;;;22.21;100.00;94347.78;6167506;23;20008;-91
2023/07/22 06:23:00;;;;;;;17.45;6.53;;;;;;;22.51;100.00;94347.41;6165904;23;20028;-90
2023/07/22 06:25:25;;;;;;;16.65;6.13;;;;;;;22.71;100.00;94342.16;6190752;23;20004;-90
2023/07/22 06:27:53;;;;;;;10.43;4.90;;;;;;;22.50;100.00;94345.88;6191160;23;20058;-92
2023/07/22 06:30:19;;;;;;;10.20;5.50;;;;;;;21.84;100.00;94337.28;6166851;23;20092;-90
2023/07/22 06:32:45;;;;;;;12.05;5.85;;;;;;;22.65;100.00;94341.63;6165356;23;20365;-88
2023/07/22 06:35:10;;;;;;;18.02;6.65;;;;;;;22.38;100.00;94348.59;6190967;23;20082;-90
2023/07/22 06:37:36;;;;;;;19.40;6.57;;;;;;;22.29;100.00;94346.84;6166221;23;20091;-91
2023/07/22 06:40:02;;;;;;;14.77;6.07;;;;;;;22.22;100.00;94335.22;6190762;23;20001;-90
2023/07/22 06:42:27;;;;;;;12.63;6.07;;;;;;;22.90;100.00;94340.69;6166407;23;20027;-90
2023/07/22 06:44:53;;;;;;;14.98;6.53;;;;;;;22.68;100.00;94334.84;6190118;23;19992;-89
2023/07/22 06:47:18;;;;;;;17.98;6.97;;;;;;;22.43;100.00;94343.78;6190910;23;20421;-88
2023/07/22 06:49:44;;;;;;;15.48;6.50;;;;;;;22.65;100.00;94333.63;6190885;23;19997;-88
2023/07/22 06:52:10;;;;;;;13.80;5.43;;;;;;;22.42;100.00;94336.09;6166203;23;20039;-92
2023/07/22 06:54:38;;;;;;;10.20;5.63;;;;;;;23.12;100.00;94342.69;6165308;23;20032;-89
2023/07/22 06:57:05;;;;;;;18.60;6.18;;;;;;;23.20;100.00;94340.97;6191438;23;20589;-88
2023/07/22 06:59:34;;;;;;;14.02;6.15;;;;;;;23.01;100.00;94342.47;6166926;23;20031;-90
2023/07/22 07:01:59;;;;;;;13.35;5.40;;;;;;;23.42;100.00;94352.16;6190996;23;20430;-90
2023/07/22 07:04:25;;;;;;;10.13;5.13;;;;;;;23.64;100.00;94341.88;6166061;23;20004;-90
2023/07/22 07:06:51;;;;;;;13.77;5.82;;;;;;;23.60;100.00;94349.06;6166523;23;20008;-91
2023/07/22 07:09:16;;;;;;;14.35;6.00;;;;;;;23.35;100.00;94350.09;6191006;23;19996;-89
2023/07/22 07:11:46;;;;;;;17.35;5.78;;;;;;;23.59;100.00;94345.59;6166842;23;19997;-93
2023/07/22 07:14:12;;;;;;;12.15;5.10;;;;;;;23.94;100.00;94350.13;6166021;23;20008;-88
2023/07/22 07:16:38;;;;;;;20.02;5.25;;;;;;;23.35;100.00;94355.44;6166087;23;20004;-90
2023/07/22 07:19:03;;;;;;;15.18;5.70;;;;;;;23.70;100.00;94359.22;6165687;23;20000;-91
2023/07/22 07:21:29;;;;;;;12.95;5.10;;;;;;;24.01;100.00;94349.47;6166914;23;20004;-93
2023/07/22 07:23:55;;;;;;;14.07;5.80;;;;;;;23.36;100.00;94358.88;6190790;23;19993;-90
2023/07/22 07:26:21;;;;;;;10.50;5.25;;;;;;;23.53;100.00;94363.06;6166250;23;20001;-91
2023/07/22 07:28:47;;;;;;;17.25;5.97;;;;;;;24.01;100.00;94368.22;6190755;23;20119;-87
2023/07/22 07:31:13;;;;;;;12.98;5.35;;;;;;;24.25;100.00;94359.13;6166376;23;20322;-89
2023/07/22 07:33:39;;;;;;;16.23;5.57;;;;;;;24.06;100.00;94357.25;6165547;23;20108;-91
2023/07/22 07:36:05;;;;;;;17.20;5.93;;;;;;;24.08;100.00;94354.97;6165676;23;20004;-92
2023/07/22 07:38:31;;;;;;;13.23;5.72;;;;;;;24.29;100.00;94367.97;6166062;23;20000;-88
2023/07/22 07:41:11;;;;;;;9.88;4.97;;;;;;;24.74;100.00;94374.84;6166060;23;20004;-92
2023/07/22 07:43:40;;;;;;;14.00;5.18;;;;;;;24.95;100.00;94364.50;6166323;23;20418;-90
2023/07/22 07:46:20;;;;;;;9.68;4.88;;;;;;;24.98;100.00;94358.44;6165753;23;20080;-93
2023/07/22 07:48:46;;;;;;;17.55;5.32;;;;;;;24.76;100.00;94359.19;6216739;23;20000;-89
2023/07/22 07:51:16;;;;;;;12.18;5.43;;;;;;;24.79;100.00;94361.97;6165873;23;20005;-91
2023/07/22 07:53:43;;;;;;;13.95;5.80;;;;;;;24.80;100.00;94358.16;6165795;23;20390;-93
2023/07/22 07:56:10;;;;;;;13.77;5.82;;;;;;;25.32;100.00;94351.63;6190788;23;20004;-90
2023/07/22 07:58:39;;;;;;;13.07;5.47;;;;;;;25.38;100.00;94360.88;6165415;23;20023;-88
2023/07/22 08:01:05;;;;;;;16.55;5.90;;;;;;;25.45;100.00;94365.56;6166085;23;20062;-92
2023/07/22 08:03:30;;;;;;;17.98;5.65;;;;;;;25.41;100.00;94368.22;6165651;23;20005;-91
2023/07/22 08:05:56;;;;;;;13.73;5.97;;;;;;;25.74;100.00;94369.44;6190250;23;20028;-88
2023/07/22 08:08:22;;;;;;;12.68;5.45;;;;;;;25.70;100.00;94357.88;6166026;23;20005;-91
2023/07/22 08:10:48;;;;;;;14.68;5.60;;;;;;;25.38;100.00;94358.97;6190328;23;19997;-89
2023/07/22 08:13:14;;;;;;;13.02;5.40;;;;;;;25.91;100.00;94353.91;6165015;23;20562;-91
2023/07/22 08:15:41;;;;;;;13.95;5.03;;;;;;;25.77;100.00;94346.47;6190493;23;20000;-90
2023/07/22 08:18:07;;;;;;;14.23;6.03;;;;;;;25.41;100.00;94360.19;6165525;23;20011;-88
2023/07/22 08:20:35;;;;;;;17.75;5.22;;;;;;;25.15;100.00;94355.59;6164917;23;20001;-88
2023/07/22 08:23:00;;;;;;;13.65;5.43;;;;;;;25.33;100.00;94355.84;6165396;23;20008;-92
2023/07/22 08:25:26;;;;;;;9.90;4.53;;;;;;;25.85;100.00;94364.19;6165422;23;20314;-90
2023/07/22 08:28:04;;;;;;;;;;;;;;;;;;;;;
2023/07/22 08:30:40;;;;;;;16.08;5.72;;;;;;;25.50;100.00;94360.69;6192646;23;20375;-89
2023/07/22 08:33:16;;;;;;;15.88;5.45;;;;;;;25.39;100.00;94365.09;6166732;23;20040;-91
2023/07/22 08:35:52;;;;;;;;;;;;;;;;;;;;;
2023/07/22 08:38:23;;;;;;;10.35;4.78;;;;;;;26.22;100.00;94366.16;6192428;23;20486;-89
2023/07/22 08:40:53;;;;;;;23.60;5.30;;;;;;;25.89;100.00;94359.63;6165830;23;20354;-94
2023/07/22 08:43:29;;;;;;;13.90;5.40;;;;;;;25.57;100.00;94360.00;6164912;23;20001;-89
2023/07/22 08:46:05;;;;;;;;;;;;;;;;;;;;;
2023/07/22 08:48:34;;;;;;;18.17;6.00;;;;;;;26.04;100.00;94355.19;6192881;23;20067;-90
2023/07/22 08:51:12;;;;;;;21.17;5.80;;;;;;;26.32;100.00;94369.28;6190656;23;20051;-90
2023/07/22 08:53:50;;;;;;;;;;;;;;;;;;;;;
2023/07/22 08:56:18;;;;;;;16.83;5.05;;;;;;;26.75;100.00;94358.19;6191953;23;20076;-92
2023/07/22 08:58:55;;;;;;;;;;;;;;;;;;;;;
2023/07/22 09:01:26;;;;;;;11.50;5.13;;;;;;;26.68;100.00;94358.88;6192344;23;20086;-91
2023/07/22 09:03:53;;;;;;;17.63;5.60;;;;;;;26.64;100.00;94358.84;6190742;23;19992;-92
2023/07/22 09:06:19;;;;;;;14.05;4.90;;;;;;;26.66;100.00;94351.19;6165548;23;20461;-88
2023/07/22 09:08:45;;;;;;;11.52;4.85;;;;;;;27.17;98.52;94351.59;6165604;23;20004;-89
2023/07/22 09:11:11;;;;;;;14.50;5.13;;;;;;;26.84;94.68;94349.78;6165675;23;20058;-92
2023/07/22 09:13:39;;;;;;;9.38;4.90;;;;;;;26.68;100.00;94357.00;6164636;23;20036;-90
2023/07/22 09:16:05;;;;;;;16.85;5.22;;;;;;;27.10;100.00;94362.28;6165459;23;20417;-89
2023/07/22 09:18:33;;;;;;;23.40;5.60;;;;;;;27.44;97.20;94367.50;6190223;23;19992;-91
2023/07/22 09:20:58;;;;;;;54.33;13.52;;;;;;;27.41;96.69;94370.97;6165048;23;20015;-90
2023/07/22 09:23:34;;;;;;;20.30;5.95;;;;;;;27.69;88.90;94371.50;6165155;23;20001;-87
2023/07/22 09:26:14;;;;;;;14.50;5.22;;;;;;;26.84;100.00;94369.41;6189800;23;20001;-89
2023/07/22 09:28:58;;;;;;;13.77;5.30;;;;;;;26.64;100.00;94374.97;6165762;23;20447;-89
2023/07/22 09:31:30;;;;;;;24.35;6.60;;;;;;;26.68;100.00;94369.63;6189434;23;20011;-87
2023/07/22 09:34:09;;;;;;;16.10;5.18;;;;;;;26.63;100.00;94360.00;6190238;23;20028;-91
2023/07/22 09:36:49;;;;;;;13.40;5.03;;;;;;;26.68;89.93;94356.22;6189346;23;20004;-88
2023/07/22 09:39:15;;;;;;;13.35;4.85;;;;;;;26.93;88.78;94359.09;6190091;23;20012;-91
2023/07/22 09:41:45;;;;;;;10.13;4.32;;;;;;;26.68;95.41;94356.22;6165705;23;19997;-93
2023/07/22 09:44:12;;;;;;;47.00;8.80;;;;;;;27.15;100.00;94366.56;6189512;23;20004;-93
2023/07/22 09:46:37;;;;;;;10.18;4.35;;;;;;;27.58;90.07;94366.81;6165329;23;20020;-87
2023/07/22 09:49:07;;;;;;;19.08;4.68;;;;;;;27.56;89.64;94368.38;6189917;23;20410;-89
2023/07/22 09:51:37;;;;;;;15.27;5.22;;;;;;;26.96;87.15;94358.34;6165641;23;20314;-92
2023/07/22 09:54:07;;;;;;;20.38;5.70;;;;;;;27.50;87.99;94357.16;6188926;23;20008;-93
2023/07/22 09:56:45;;;;;;;32.35;6.68;;;;;;;27.20;88.07;94361.59;6166619;23;20099;-91
2023/07/22 09:59:11;;;;;;;26.55;5.53;;;;;;;27.18;99.95;94369.28;6189652;23;20631;-90
2023/07/22 10:01:40;;;;;;;14.73;5.03;;;;;;;27.14;80.42;94370.38;6189710;23;20084;-91
2023/07/22 10:04:06;;;;;;;10.90;4.53;;;;;;;26.43;84.21;94364.06;6164259;23;20007;-91
2023/07/22 10:06:32;;;;;;;12.85;4.93;;;;;;;26.86;78.47;94375.19;6189713;23;19996;-90
2023/07/22 10:09:07;;;;;;;18.27;4.75;;;;;;;27.09;81.90;94369.59;6189782;23;20001;-90
2023/07/22 10:11:33;;;;;;;11.65;5.13;;;;;;;25.82;100.00;94360.34;6189799;23;20425;-88
2023/07/22 10:13:59;;;;;;;11.48;4.63;;;;;;;25.62;100.00;94357.03;6163205;23;20001;-89
2023/07/22 10:16:27;;;;;;;15.20;5.80;;;;;;;25.80;100.00;94359.91;6190113;23;20000;-88
2023/07/22 10:18:53;;;;;;;13.50;5.03;;;;;;;25.92;100.00;94364.28;6165497;23;20020;-88
2023/07/22 10:21:19;;;;;;;13.10;4.55;;;;;;;25.79;100.00;94358.34;6215807;23;19992;-90
2023/07/22 10:23:47;;;;;;;12.90;4.75;;;;;;;25.66;100.00;94365.09;6163653;23;20776;-88
2023/07/22 10:26:18;;;;;;;15.05;4.80;;;;;;;25.59;100.00;94373.06;6189118;23;20003;-88
2023/07/22 10:28:45;;;;;;;15.60;4.88;;;;;;;25.40;100.00;94361.31;6163834;23;20005;-87
2023/07/22 10:31:12;;;;;;;14.70;4.47;;;;;;;25.39;100.00;94354.38;6188322;23;20000;-91
2023/07/22 10:33:38;;;;;;;27.55;8.23;;;;;;;25.87;100.00;94361.13;6163373;23;20119;-90
2023/07/22 10:36:10;;;;;;;17.15;4.60;;;;;;;25.91;100.00;94352.00;6163436;23;20390;-89
2023/07/22 10:38:37;;;;;;;17.15;4.60;;;;;;;26.30;79.06;94342.03;6189189;23;19996;-88
2023/07/22 10:41:12;;;;;;;10.05;4.22;;;;;;;26.85;80.14;94341.38;6189121;23;20001;-90
2023/07/22 10:43:37;;;;;;;10.43;4.32;;;;;;;27.26;81.74;94342.41;6214535;23;20001;-89
2023/07/22 10:46:12;;;;;;;10.75;4.30;;;;;;;27.07;76.43;94346.91;6164779;23;20354;-88
2023/07/22 10:48:42;;;;;;;11.77;4.32;;;;;;;27.28;66.77;94345.53;6164889;23;20004;-89
2023/07/22 10:51:12;;;;;;;10.20;4.07;;;;;;;27.82;62.03;94339.63;6164736;23;20369;-90
2023/07/22 10:53:42;;;;;;;7.38;3.42;;;;;;;27.91;63.46;94335.44;6164300;23;20009;-90
2023/07/22 10:56:25;;;;;;;10.77;4.00;;;;;;;27.77;61.22;94343.47;6164082;23;20005;-88
2023/07/22 10:58:57;;;;;;;13.88;3.83;;;;;;;27.99;56.73;94325.47;6164849;23;20012;-89
2023/07/22 11:01:29;;;;;;;8.05;3.50;;;;;;;28.28;58.27;94336.34;6215330;23;20004;-88
2023/07/22 11:04:10;;;;;;;8.85;3.90;;;;;;;28.26;57.06;94335.16;6188808;23;20020;-91
2023/07/22 11:06:43;;;;;;;9.43;4.30;;;;;;;28.15;62.78;94327.03;6217060;23;20011;-89
2023/07/22 11:09:44;;;;;;;10.75;4.18;;;;;;;27.62;53.86;94334.56;6191278;23;19996;-90
2023/07/22 11:12:22;;;;;;;;;;;;;;;;;;;;;
2023/07/22 11:14:53;;;;;;;10.35;4.18;;;;;;;28.09;58.62;94332.78;6216753;23;20068;-91
2023/07/22 11:17:30;;;;;;;22.80;4.55;;;;;;;27.65;54.03;94339.19;6190899;23;20001;-91
2023/07/22 11:19:57;;;;;;;9.77;3.75;;;;;;;28.05;55.95;94340.09;6166509;23;19996;-88
2023/07/22 11:22:22;;;;;;;10.65;4.28;;;;;;;28.03;62.05;94342.41;6190626;23;20794;-89
2023/07/22 11:24:48;;;;;;;12.88;4.07;;;;;;;27.70;56.00;94330.75;6166320;23;20003;-89
2023/07/22 11:27:14;;;;;;;10.07;4.60;;;;;;;27.57;57.24;94338.38;6190844;23;20013;-89
2023/07/22 11:29:42;;;;;;;11.10;4.13;;;;;;;27.70;55.98;94344.22;6166150;23;20004;-89